Live aus Altenrhein
LIVE
LSZR 261520Z 27005KT 9999 -RA OVC012 04/03 Q1011 NOSIG RMK M

People´s Info Center:

Öffnungszeiten Mo-Fr, 8-18 Uhr

 

info@peoples.ch

 
Aus Österreich:

T: +43 (0)5572 203 610

 

Aus CH / LI / DE:

T: +41 (0)71 858 51 60

 

 

Einzelfahrt oder Hin-/Rückfahrt?